createdAt,value
2023-04-19T00:00:15.210Z,0.00
2023-04-19T00:01:15.189Z,0.00
2023-04-19T00:02:15.221Z,0.00
2023-04-19T00:03:15.393Z,0.00
2023-04-19T00:04:15.879Z,0.00
2023-04-19T00:05:15.179Z,0.00
2023-04-19T00:06:15.173Z,0.00
2023-04-19T00:07:15.142Z,0.00
2023-04-19T00:08:15.135Z,0.00
2023-04-19T00:09:15.151Z,0.00
2023-04-19T00:10:15.101Z,0.00
2023-04-19T00:11:15.109Z,0.00
2023-04-19T00:12:15.065Z,0.00
2023-04-19T00:13:15.080Z,0.00
2023-04-19T00:14:15.243Z,0.00
2023-04-19T00:15:15.035Z,0.00
2023-04-19T00:16:15.084Z,0.00
2023-04-19T00:17:14.992Z,0.00
2023-04-19T00:18:15.010Z,0.00
2023-04-19T00:19:15.064Z,0.00
2023-04-19T00:20:14.969Z,0.00
2023-04-19T00:21:14.966Z,0.00
2023-04-19T00:22:14.935Z,0.00
2023-04-19T00:23:14.935Z,0.00
2023-04-19T00:24:15.094Z,0.00
2023-04-19T00:25:15.013Z,0.00
2023-04-19T00:26:14.910Z,0.00
2023-04-19T00:27:14.875Z,0.00
2023-04-19T00:28:14.864Z,0.00
2023-04-19T00:29:14.868Z,0.00
2023-04-19T00:30:14.864Z,0.00
2023-04-19T00:31:14.935Z,0.00
2023-04-19T00:32:14.827Z,0.00
2023-04-19T00:33:14.809Z,0.00
2023-04-19T00:34:15.036Z,0.00
2023-04-19T00:35:14.785Z,0.00
2023-04-19T00:36:14.771Z,0.00
2023-04-19T00:37:14.782Z,0.00
2023-04-19T00:38:14.725Z,0.00
2023-04-19T00:39:14.773Z,0.00
2023-04-19T00:40:14.703Z,0.00
2023-04-19T00:41:14.809Z,0.00
2023-04-19T00:42:14.693Z,0.00
2023-04-19T00:43:14.696Z,0.00
2023-04-19T00:44:14.937Z,0.00
2023-04-19T00:45:14.654Z,0.00
2023-04-19T00:46:14.655Z,0.00
2023-04-19T00:47:14.620Z,0.00
2023-04-19T00:48:14.598Z,0.00
2023-04-19T00:49:14.636Z,0.00
2023-04-19T00:50:14.578Z,0.00
2023-04-19T00:51:14.580Z,0.00
2023-04-19T00:52:14.555Z,0.00
2023-04-19T00:53:14.535Z,0.00
2023-04-19T00:54:14.847Z,0.00
2023-04-19T00:55:14.512Z,0.00
2023-04-19T00:56:14.526Z,0.00
2023-04-19T00:57:14.494Z,0.00
2023-04-19T00:58:14.470Z,0.00
2023-04-19T00:59:14.495Z,0.00
2023-04-19T01:00:14.446Z,0.00
2023-04-19T01:01:14.479Z,0.00
2023-04-19T01:02:14.509Z,0.00
2023-04-19T01:03:14.661Z,0.00
2023-04-19T01:04:14.770Z,0.00
2023-04-19T01:05:14.417Z,0.00
2023-04-19T01:06:14.427Z,0.00
2023-04-19T01:07:14.375Z,0.00
2023-04-19T01:08:14.357Z,0.00
2023-04-19T01:09:14.367Z,0.00
2023-04-19T01:10:14.325Z,0.00
2023-04-19T01:11:14.329Z,0.00
2023-04-19T01:12:14.331Z,0.00
2023-04-19T01:13:15.157Z,0.00
2023-04-19T01:14:14.412Z,0.00
2023-04-19T01:15:14.254Z,0.00
2023-04-19T01:16:14.299Z,0.00
2023-04-19T01:17:14.259Z,0.00
2023-04-19T01:18:14.235Z,0.00
2023-04-19T01:19:14.221Z,0.00
2023-04-19T01:20:14.225Z,0.00
2023-04-19T01:21:14.217Z,0.00
2023-04-19T01:22:14.185Z,0.00
2023-04-19T01:23:14.165Z,0.00
2023-04-19T01:24:14.400Z,0.00
2023-04-19T01:25:14.149Z,0.00
2023-04-19T01:26:14.133Z,0.00
2023-04-19T01:27:14.201Z,0.00
2023-04-19T01:28:14.125Z,0.00
2023-04-19T01:29:14.097Z,0.00
2023-04-19T01:30:14.058Z,0.00
2023-04-19T01:31:14.103Z,0.00
2023-04-19T01:32:14.043Z,0.00
2023-04-19T01:33:14.050Z,0.00
2023-04-19T01:34:14.207Z,0.00
2023-04-19T01:35:14.011Z,0.00
2023-04-19T01:36:14.029Z,0.00
2023-04-19T01:37:13.984Z,0.00
2023-04-19T01:38:13.956Z,0.00
2023-04-19T01:39:14.022Z,0.00
2023-04-19T01:40:13.961Z,0.00
2023-04-19T01:41:13.923Z,0.00
2023-04-19T01:42:13.910Z,0.00
2023-04-19T01:43:13.893Z,0.00
2023-04-19T01:44:14.289Z,0.00
2023-04-19T01:45:13.870Z,0.00
2023-04-19T01:46:13.869Z,0.00
2023-04-19T01:47:13.912Z,0.00
2023-04-19T01:48:13.854Z,0.00
2023-04-19T01:49:13.821Z,0.00
2023-04-19T01:50:13.826Z,0.00
2023-04-19T01:51:13.788Z,0.00
2023-04-19T01:52:13.790Z,0.00
2023-04-19T01:53:13.765Z,0.00
2023-04-19T01:54:13.960Z,0.00
2023-04-19T01:55:13.772Z,0.00
2023-04-19T01:56:13.765Z,0.00
2023-04-19T01:57:13.714Z,0.00
2023-04-19T01:58:13.705Z,0.00
2023-04-19T01:59:13.731Z,0.00
2023-04-19T02:00:13.670Z,0.00
2023-04-19T02:01:13.741Z,0.00
2023-04-19T02:02:13.732Z,0.00
2023-04-19T02:03:13.784Z,0.00
2023-04-19T02:04:13.907Z,0.00
2023-04-19T02:05:13.695Z,0.00
2023-04-19T02:06:13.609Z,0.00
2023-04-19T02:07:13.602Z,0.00
2023-04-19T02:08:13.595Z,0.00
2023-04-19T02:09:13.557Z,0.00
2023-04-19T02:10:13.557Z,0.00
2023-04-19T02:11:13.549Z,0.00
2023-04-19T02:12:13.525Z,0.00
2023-04-19T02:13:13.525Z,0.00
2023-04-19T02:14:13.695Z,0.00
2023-04-19T02:15:13.494Z,0.00
2023-04-19T02:16:13.500Z,0.00
2023-04-19T02:17:13.469Z,0.00
2023-04-19T02:18:13.481Z,0.00
2023-04-19T02:19:13.448Z,0.00
2023-04-19T02:20:13.420Z,0.00
2023-04-19T02:21:13.414Z,0.00
2023-04-19T02:22:13.405Z,0.00
2023-04-19T02:23:13.397Z,0.00
2023-04-19T02:24:13.539Z,0.00
2023-04-19T02:25:13.430Z,0.00
2023-04-19T02:26:13.342Z,0.00
2023-04-19T02:27:13.333Z,0.00
2023-04-19T02:28:13.320Z,0.00
2023-04-19T02:29:13.308Z,0.00
2023-04-19T02:30:13.314Z,0.00
2023-04-19T02:31:13.354Z,0.00
2023-04-19T02:32:13.274Z,0.00
2023-04-19T02:33:13.259Z,0.00
2023-04-19T02:34:13.570Z,0.00
2023-04-19T02:35:13.239Z,0.00
2023-04-19T02:36:13.251Z,0.00
2023-04-19T02:37:13.218Z,0.00
2023-04-19T02:38:13.218Z,0.00
2023-04-19T02:39:13.209Z,0.00
2023-04-19T02:40:13.226Z,0.00
2023-04-19T02:41:13.152Z,0.00
2023-04-19T02:42:13.167Z,0.00
2023-04-19T02:43:13.134Z,0.00
2023-04-19T02:44:13.169Z,0.00
2023-04-19T02:45:13.107Z,0.00
2023-04-19T02:46:13.125Z,0.00
2023-04-19T02:47:13.102Z,0.00
2023-04-19T02:48:13.211Z,0.00
2023-04-19T02:49:13.072Z,0.00
2023-04-19T02:50:13.039Z,0.00
2023-04-19T02:51:13.025Z,0.00
2023-04-19T02:52:13.103Z,0.00
2023-04-19T02:53:13.039Z,0.00
2023-04-19T02:54:13.066Z,0.00
2023-04-19T02:55:12.995Z,0.00
2023-04-19T02:56:12.965Z,0.00
2023-04-19T02:57:12.961Z,0.00
2023-04-19T02:58:12.969Z,0.00
2023-04-19T02:59:12.991Z,0.00
2023-04-19T03:00:12.932Z,0.00
2023-04-19T03:01:12.959Z,0.00
2023-04-19T03:02:12.906Z,0.00
2023-04-19T03:03:13.019Z,0.00
2023-04-19T03:04:13.067Z,0.00
2023-04-19T03:05:12.873Z,0.00
2023-04-19T03:06:12.832Z,0.00
2023-04-19T03:07:12.831Z,0.00
2023-04-19T03:08:12.818Z,0.00
2023-04-19T03:09:12.965Z,0.00
2023-04-19T03:10:12.817Z,0.00
2023-04-19T03:11:12.802Z,0.00
2023-04-19T03:12:12.774Z,0.00
2023-04-19T03:13:12.751Z,0.00
2023-04-19T03:14:12.815Z,0.00
2023-04-19T03:15:12.782Z,0.00
2023-04-19T03:16:12.793Z,0.00
2023-04-19T03:17:12.700Z,0.00
2023-04-19T03:18:12.701Z,0.00
2023-04-19T03:19:12.688Z,0.00
2023-04-19T03:20:12.667Z,0.00
2023-04-19T03:21:12.669Z,0.00
2023-04-19T03:22:12.626Z,0.00
2023-04-19T03:23:12.631Z,0.00
2023-04-19T03:24:12.708Z,0.00
2023-04-19T03:25:12.592Z,0.00
2023-04-19T03:26:12.597Z,0.00
2023-04-19T03:27:12.565Z,0.00
2023-04-19T03:28:12.552Z,0.00
2023-04-19T03:29:12.568Z,0.00
2023-04-19T03:30:12.529Z,0.00
2023-04-19T03:31:12.604Z,0.00
2023-04-19T03:32:12.510Z,0.00
2023-04-19T03:33:12.486Z,0.00
2023-04-19T03:34:12.485Z,0.00
2023-04-19T03:35:12.458Z,0.00
2023-04-19T03:36:12.454Z,0.00
2023-04-19T03:37:12.472Z,0.00
2023-04-19T03:38:12.419Z,0.00
2023-04-19T03:39:12.421Z,0.00
2023-04-19T03:40:12.409Z,0.00
2023-04-19T03:41:12.399Z,0.00
2023-04-19T03:42:12.375Z,0.00
2023-04-19T03:43:12.388Z,0.00
2023-04-19T03:44:12.372Z,0.00
2023-04-19T03:45:12.354Z,0.00
2023-04-19T03:46:12.354Z,0.00
2023-04-19T03:47:12.309Z,0.00
2023-04-19T03:48:12.318Z,0.00
2023-04-19T03:49:12.329Z,0.00
2023-04-19T03:50:12.262Z,0.00
2023-04-19T03:51:12.252Z,0.00
2023-04-19T03:52:12.249Z,0.00
2023-04-19T03:53:12.230Z,0.00
2023-04-19T03:54:12.319Z,0.00
2023-04-19T03:55:12.236Z,0.00
2023-04-19T03:56:12.207Z,0.00
2023-04-19T03:57:12.191Z,0.00
2023-04-19T03:58:12.164Z,0.00
2023-04-19T03:59:12.172Z,0.00
2023-04-19T04:00:12.147Z,0.00
2023-04-19T04:01:12.135Z,0.00
2023-04-19T04:02:12.196Z,4.00
2023-04-19T04:03:12.294Z,4.00
2023-04-19T04:04:12.320Z,0.00
2023-04-19T04:05:12.166Z,4.00
2023-04-19T04:06:12.072Z,4.00
2023-04-19T04:07:12.084Z,4.00
2023-04-19T04:08:12.039Z,4.00
2023-04-19T04:09:12.027Z,8.00
2023-04-19T04:10:12.081Z,8.00
2023-04-19T04:11:12.010Z,8.00
2023-04-19T04:12:11.993Z,12.00
2023-04-19T04:13:11.969Z,12.00
2023-04-19T04:14:11.973Z,16.00
2023-04-19T04:15:11.954Z,16.00
2023-04-19T04:16:11.992Z,20.00
2023-04-19T04:17:11.936Z,28.00
2023-04-19T04:18:11.913Z,36.00
2023-04-19T04:19:11.933Z,36.00
2023-04-19T04:20:11.895Z,36.00
2023-04-19T04:21:11.865Z,40.00
2023-04-19T04:22:11.912Z,52.00
2023-04-19T04:23:11.854Z,64.00
2023-04-19T04:24:11.822Z,72.00
2023-04-19T04:25:11.842Z,84.00
2023-04-19T04:26:11.852Z,92.00
2023-04-19T04:27:11.825Z,96.00
2023-04-19T04:28:11.828Z,108.00
2023-04-19T04:29:11.771Z,112.00
2023-04-19T04:30:11.772Z,116.00
2023-04-19T04:31:11.750Z,128.00
2023-04-19T04:32:11.767Z,152.00
2023-04-19T04:33:11.748Z,172.00
2023-04-19T04:34:11.732Z,176.00
2023-04-19T04:35:11.705Z,192.00
2023-04-19T04:36:11.722Z,200.00
2023-04-19T04:37:11.681Z,208.00
2023-04-19T04:38:23.690Z,220.00
2023-04-19T04:39:11.678Z,240.00
2023-04-19T04:40:11.660Z,272.00
2023-04-19T04:41:11.647Z,276.00
2023-04-19T04:42:11.626Z,268.00
2023-04-19T04:43:11.625Z,272.00
2023-04-19T04:44:23.135Z,292.00
2023-04-19T04:45:11.616Z,328.00
2023-04-19T04:46:11.598Z,348.00
2023-04-19T04:47:11.580Z,372.00
2023-04-19T04:48:11.540Z,356.00
2023-04-19T04:49:11.548Z,340.00
2023-04-19T04:50:11.550Z,404.00
2023-04-19T04:51:11.512Z,424.00
2023-04-19T04:52:11.505Z,412.00
2023-04-19T04:53:12.840Z,440.00
2023-04-19T04:54:11.479Z,476.00
2023-04-19T04:55:11.501Z,488.00
2023-04-19T04:56:11.457Z,492.00
2023-04-19T04:57:11.433Z,496.00
2023-04-19T04:58:11.433Z,492.00
2023-04-19T04:59:11.527Z,528.00
2023-04-19T05:00:11.400Z,564.00
2023-04-19T05:01:11.449Z,556.00
2023-04-19T05:02:11.403Z,564.00
2023-04-19T05:03:11.452Z,612.00
2023-04-19T05:04:11.416Z,656.00
2023-04-19T05:05:11.414Z,652.00
2023-04-19T05:06:11.318Z,668.00
2023-04-19T05:07:11.349Z,680.00
2023-04-19T05:08:11.298Z,696.00
2023-04-19T05:09:11.330Z,732.00
2023-04-19T05:10:11.278Z,780.00
2023-04-19T05:11:11.283Z,836.00
2023-04-19T05:12:11.270Z,804.00
2023-04-19T05:13:11.256Z,804.00
2023-04-19T05:14:11.222Z,824.00
2023-04-19T05:15:11.210Z,960.00
2023-04-19T05:16:11.212Z,1112.00
2023-04-19T05:17:11.208Z,1196.00
2023-04-19T05:18:11.173Z,1180.00
2023-04-19T05:19:11.186Z,1176.00
2023-04-19T05:20:11.200Z,1184.00
2023-04-19T05:21:11.141Z,1244.00
2023-04-19T05:22:11.140Z,1316.00
2023-04-19T05:23:11.108Z,1384.00
2023-04-19T05:24:11.098Z,1428.00
2023-04-19T05:25:11.130Z,1520.00
2023-04-19T05:26:11.061Z,1700.00
2023-04-19T05:27:11.169Z,1832.00
2023-04-19T05:28:11.075Z,1612.00
2023-04-19T05:29:11.052Z,1512.00
2023-04-19T05:30:11.028Z,1624.00
2023-04-19T05:31:11.110Z,1784.00
2023-04-19T05:32:11.010Z,1904.00
2023-04-19T05:33:11.001Z,1844.00
2023-04-19T05:34:10.971Z,1772.00
2023-04-19T05:35:10.968Z,1880.00
2023-04-19T05:36:10.989Z,1940.00
2023-04-19T05:37:10.979Z,1900.00
2023-04-19T05:38:10.987Z,1880.00
2023-04-19T05:39:10.930Z,1988.00
2023-04-19T05:40:10.918Z,2072.00
2023-04-19T05:41:10.937Z,2080.00
2023-04-19T05:42:10.938Z,2088.00
2023-04-19T05:43:10.867Z,2252.00
2023-04-19T05:44:10.859Z,2460.00
2023-04-19T05:45:10.845Z,2368.00
2023-04-19T05:46:10.862Z,2304.00
2023-04-19T05:47:10.833Z,2152.00
2023-04-19T05:48:10.817Z,2108.00
2023-04-19T05:49:10.835Z,2132.00
2023-04-19T05:50:10.775Z,2240.00
2023-04-19T05:51:10.750Z,2320.00
2023-04-19T05:52:10.744Z,2300.00
2023-04-19T05:53:10.756Z,2304.00
2023-04-19T05:54:10.763Z,2392.00
2023-04-19T05:55:10.701Z,2420.00
2023-04-19T05:56:10.843Z,2420.00
2023-04-19T05:57:10.701Z,2484.00
2023-04-19T05:58:10.695Z,2632.00
2023-04-19T05:59:10.699Z,2724.00
2023-04-19T06:00:10.652Z,2768.00
2023-04-19T06:01:10.647Z,2724.00
2023-04-19T06:02:10.786Z,2840.00
2023-04-19T06:03:10.742Z,2876.00
2023-04-19T06:04:10.738Z,2792.00
2023-04-19T06:05:11.368Z,2656.00
2023-04-19T06:06:10.566Z,2532.00
2023-04-19T06:07:22.159Z,2372.00
2023-04-19T06:08:10.585Z,2416.00
2023-04-19T06:09:10.538Z,2552.00
2023-04-19T06:10:10.589Z,2632.00
2023-04-19T06:11:20.214Z,2740.00
2023-04-19T06:12:10.481Z,2852.00
2023-04-19T06:13:10.465Z,2896.00
2023-04-19T06:14:10.458Z,2976.00
2023-04-19T06:15:10.485Z,3028.00
2023-04-19T06:16:10.469Z,2916.00
2023-04-19T06:17:10.420Z,3020.00
2023-04-19T06:18:10.450Z,3144.00
2023-04-19T06:19:10.406Z,3212.00
2023-04-19T06:20:10.390Z,3160.00
2023-04-19T06:21:10.380Z,3016.00
2023-04-19T06:22:10.356Z,2992.00
2023-04-19T06:23:10.357Z,3080.00
2023-04-19T06:24:10.350Z,3096.00
2023-04-19T06:25:10.338Z,3068.00
2023-04-19T06:26:10.331Z,3224.00
2023-04-19T06:27:10.366Z,3496.00
2023-04-19T06:28:10.352Z,3664.00
2023-04-19T06:29:10.334Z,3764.00
2023-04-19T06:30:10.243Z,3620.00
2023-04-19T06:31:10.262Z,3568.00
2023-04-19T06:32:10.258Z,3332.00
2023-04-19T06:33:10.210Z,3188.00
2023-04-19T06:34:10.221Z,3108.00
2023-04-19T06:35:10.194Z,3436.00
2023-04-19T06:36:10.176Z,4012.00
2023-04-19T06:37:10.200Z,4532.00
2023-04-19T06:38:10.155Z,4508.00
2023-04-19T06:39:10.123Z,4096.00
2023-04-19T06:40:10.151Z,3996.00
2023-04-19T06:41:10.103Z,4004.00
2023-04-19T06:42:10.109Z,4100.00
2023-04-19T06:43:10.099Z,4208.00
2023-04-19T06:44:10.093Z,4548.00
2023-04-19T06:45:10.057Z,4876.00
2023-04-19T06:46:10.150Z,5000.00
2023-04-19T06:47:10.051Z,5104.00
2023-04-19T06:48:10.062Z,5036.00
2023-04-19T06:49:10.033Z,4984.00
2023-04-19T06:50:09.983Z,4816.00
2023-04-19T06:51:09.997Z,4540.00
2023-04-19T06:52:09.970Z,4456.00
2023-04-19T06:53:09.946Z,4388.00
2023-04-19T06:54:09.956Z,4536.00
2023-04-19T06:55:09.947Z,4796.00
2023-04-19T06:56:09.963Z,4968.00
2023-04-19T06:57:09.923Z,4924.00
2023-04-19T06:58:09.884Z,4792.00
2023-04-19T06:59:09.874Z,4712.00
2023-04-19T07:00:09.877Z,4724.00
2023-04-19T07:01:09.887Z,5040.00
2023-04-19T07:02:09.916Z,5616.00
2023-04-19T07:03:09.934Z,5852.00
2023-04-19T07:04:10.085Z,6328.00
2023-04-19T07:05:09.818Z,6744.00
2023-04-19T07:06:09.798Z,7688.00
2023-04-19T07:07:09.802Z,8596.00
2023-04-19T07:08:09.758Z,8980.00
2023-04-19T07:09:09.804Z,9292.00
2023-04-19T07:10:09.739Z,9588.00
2023-04-19T07:11:09.722Z,9548.00
2023-04-19T07:12:09.714Z,9428.00
2023-04-19T07:13:09.729Z,9880.00
2023-04-19T07:14:09.683Z,10844.00
2023-04-19T07:15:09.718Z,12532.00
2023-04-19T07:16:09.736Z,14036.00
2023-04-19T07:17:09.640Z,15936.00
2023-04-19T07:18:09.644Z,16320.00
2023-04-19T07:19:09.633Z,15168.00
2023-04-19T07:20:09.617Z,15240.00
2023-04-19T07:21:09.595Z,16256.00
2023-04-19T07:22:09.584Z,17728.00
2023-04-19T07:23:09.582Z,18912.00
2023-04-19T07:24:09.587Z,19424.00
2023-04-19T07:25:09.546Z,19104.00
2023-04-19T07:26:09.558Z,18816.00
2023-04-19T07:27:09.525Z,19520.00
2023-04-19T07:28:09.528Z,19648.00
2023-04-19T07:29:09.489Z,19424.00
2023-04-19T07:30:09.508Z,19328.00
2023-04-19T07:31:09.502Z,19040.00
2023-04-19T07:32:09.511Z,19136.00
2023-04-19T07:33:09.526Z,19552.00
2023-04-19T07:34:09.439Z,20000.00
2023-04-19T07:35:09.411Z,20928.00
2023-04-19T07:36:09.419Z,21376.00
2023-04-19T07:37:09.377Z,21888.00
2023-04-19T07:38:09.406Z,21184.00
2023-04-19T07:39:09.355Z,19456.00
2023-04-19T07:40:09.379Z,19264.00
2023-04-19T07:41:09.380Z,20128.00
2023-04-19T07:42:09.347Z,20512.00
2023-04-19T07:43:09.316Z,20256.00
2023-04-19T07:44:09.306Z,20576.00
2023-04-19T07:45:09.319Z,20224.00
2023-04-19T07:46:09.279Z,19360.00
2023-04-19T07:47:09.359Z,18528.00
2023-04-19T07:48:09.261Z,17504.00
2023-04-19T07:49:09.224Z,16416.00
2023-04-19T07:50:09.218Z,15188.00
2023-04-19T07:51:09.232Z,16416.00
2023-04-19T07:52:09.196Z,16576.00
2023-04-19T07:53:09.209Z,16416.00
2023-04-19T07:54:09.178Z,16064.00
2023-04-19T07:55:09.179Z,16384.00
2023-04-19T07:56:10.387Z,16256.00
2023-04-19T07:57:09.142Z,15744.00
2023-04-19T07:58:09.149Z,15252.00
2023-04-19T07:59:09.681Z,14540.00
2023-04-19T08:00:09.112Z,14128.00
2023-04-19T08:01:09.149Z,13952.00
2023-04-19T08:02:09.166Z,14432.00
2023-04-19T08:03:09.342Z,14856.00
2023-04-19T08:04:09.311Z,15200.00
2023-04-19T08:05:09.100Z,15904.00
2023-04-19T08:06:09.055Z,16544.00
2023-04-19T08:07:09.009Z,17216.00
2023-04-19T08:08:09.002Z,18240.00
2023-04-19T08:09:09.009Z,19744.00
2023-04-19T08:10:09.004Z,20608.00
2023-04-19T08:11:09.601Z,20864.00
2023-04-19T08:12:10.087Z,20896.00
2023-04-19T08:13:08.970Z,20992.00
2023-04-19T08:14:18.565Z,20960.00
2023-04-19T08:15:32.866Z,19136.00
2023-04-19T08:17:22.166Z,18720.00
2023-04-19T08:18:08.889Z,19680.00
2023-04-19T08:19:08.902Z,21312.00
2023-04-19T08:20:08.841Z,22752.00
2023-04-19T08:21:08.855Z,23552.00
2023-04-19T08:22:08.817Z,22272.00
2023-04-19T08:23:18.547Z,21792.00
2023-04-19T08:24:08.860Z,21792.00
2023-04-19T08:25:08.781Z,21984.00
2023-04-19T08:26:08.867Z,21472.00
2023-04-19T08:27:08.804Z,20192.00
2023-04-19T08:28:08.730Z,18720.00
2023-04-19T08:29:08.726Z,18528.00
2023-04-19T08:30:08.708Z,19360.00
2023-04-19T08:31:08.717Z,19104.00
2023-04-19T08:32:08.930Z,18944.00
2023-04-19T08:33:08.722Z,19104.00
2023-04-19T08:34:08.662Z,19968.00
2023-04-19T08:35:08.646Z,20416.00
2023-04-19T08:36:08.643Z,20256.00
2023-04-19T08:37:08.618Z,19552.00
2023-04-19T08:38:08.667Z,18816.00
2023-04-19T08:39:17.766Z,18336.00
2023-04-19T08:40:08.590Z,18240.00
2023-04-19T08:41:08.583Z,18272.00
2023-04-19T08:42:15.514Z,18432.00
2023-04-19T08:43:08.579Z,18624.00
2023-04-19T08:44:08.732Z,18848.00
2023-04-19T08:46:08.521Z,19296.00
2023-04-19T08:47:09.042Z,19488.00
2023-04-19T08:48:08.500Z,19776.00
2023-04-19T08:49:08.469Z,20160.00
2023-04-19T08:50:24.020Z,20480.00
2023-04-19T08:51:08.613Z,20864.00
2023-04-19T08:52:08.434Z,21280.00
2023-04-19T08:53:23.725Z,21984.00
2023-04-19T08:54:08.441Z,22624.00
2023-04-19T08:55:08.399Z,23264.00
2023-04-19T08:56:20.695Z,23616.00
2023-04-19T08:57:08.368Z,23968.00
2023-04-19T08:58:18.952Z,24096.00
2023-04-19T08:59:18.088Z,24192.00
2023-04-19T09:00:08.347Z,22880.00
2023-04-19T09:01:12.753Z,21376.00
2023-04-19T09:02:08.439Z,19200.00
2023-04-19T09:03:08.457Z,17792.00
2023-04-19T09:05:08.558Z,17856.00
2023-04-19T09:06:08.331Z,17280.00
2023-04-19T09:07:08.260Z,16448.00
2023-04-19T09:08:08.248Z,15744.00
2023-04-19T09:09:10.273Z,14028.00
2023-04-19T09:10:08.696Z,12528.00
2023-04-19T09:11:08.236Z,10876.00
2023-04-19T09:12:08.179Z,9564.00
2023-04-19T09:13:08.184Z,9116.00
2023-04-19T09:14:08.194Z,9732.00
2023-04-19T09:15:08.141Z,11408.00
2023-04-19T09:16:08.185Z,13572.00
2023-04-19T09:17:08.108Z,14828.00
2023-04-19T09:18:08.252Z,15808.00
2023-04-19T09:19:19.516Z,17472.00
2023-04-19T09:20:08.074Z,19360.00
2023-04-19T09:21:08.110Z,21280.00
2023-04-19T09:22:08.056Z,22176.00
2023-04-19T09:23:08.043Z,22496.00
2023-04-19T09:24:08.040Z,22240.00
2023-04-19T09:26:22.691Z,18176.00
2023-04-19T09:27:07.996Z,16416.00
2023-04-19T09:28:07.966Z,16064.00
2023-04-19T09:29:07.956Z,16992.00
2023-04-19T09:30:12.750Z,18496.00
2023-04-19T09:31:24.115Z,19520.00
2023-04-19T09:32:07.973Z,20064.00
2023-04-19T09:33:08.020Z,20448.00
2023-04-19T09:34:07.918Z,21376.00
2023-04-19T09:35:07.870Z,22240.00
2023-04-19T09:36:07.862Z,23584.00
2023-04-19T09:37:13.416Z,23904.00
2023-04-19T09:38:07.854Z,24352.00
2023-04-19T09:39:07.820Z,25536.00
2023-04-19T09:40:07.839Z,27712.00
2023-04-19T09:41:07.784Z,27520.00
2023-04-19T09:42:07.795Z,26208.00
2023-04-19T09:43:26.260Z,24704.00
2023-04-19T09:46:07.776Z,27776.00
2023-04-19T09:47:07.798Z,28032.00
2023-04-19T09:48:08.116Z,27200.00
2023-04-19T09:49:17.206Z,25856.00
2023-04-19T09:50:21.229Z,24544.00
2023-04-19T09:51:10.699Z,22976.00
2023-04-19T09:52:07.660Z,21440.00
2023-04-19T09:53:07.733Z,20416.00
2023-04-19T09:54:07.621Z,20576.00
2023-04-19T09:55:17.705Z,21632.00
2023-04-19T09:56:07.639Z,23392.00
2023-04-19T09:57:07.593Z,24544.00
2023-04-19T09:58:07.573Z,25280.00
2023-04-19T09:59:19.378Z,25056.00
2023-04-19T10:00:07.572Z,25056.00
2023-04-19T10:01:14.984Z,25856.00
2023-04-19T10:02:07.663Z,26688.00
2023-04-19T10:03:07.589Z,28192.00
2023-04-19T10:04:23.895Z,29440.00
2023-04-19T10:06:14.728Z,31296.00
2023-04-19T10:07:29.219Z,31712.00
2023-04-19T10:08:07.499Z,32384.00
2023-04-19T10:09:07.503Z,33504.00
2023-04-19T10:10:18.605Z,34048.00
2023-04-19T10:11:07.476Z,35104.00
2023-04-19T10:12:24.102Z,36352.00
2023-04-19T10:13:18.863Z,36640.00
2023-04-19T10:14:07.405Z,35200.00
2023-04-19T10:15:07.393Z,34400.00
2023-04-19T10:16:18.175Z,35008.00
2023-04-19T10:17:07.464Z,36736.00
2023-04-19T10:18:07.531Z,38080.00
2023-04-19T10:19:08.698Z,39232.00
2023-04-19T10:20:07.318Z,41376.00
2023-04-19T10:21:07.301Z,43648.00
2023-04-19T10:22:07.325Z,45600.00
2023-04-19T10:23:07.279Z,39104.00
2023-04-19T10:24:07.325Z,37696.00
2023-04-19T10:25:07.253Z,36000.00
2023-04-19T10:26:07.323Z,33792.00
2023-04-19T10:27:07.234Z,31584.00
2023-04-19T10:28:07.243Z,31328.00
2023-04-19T10:29:07.265Z,31264.00
2023-04-19T10:30:07.767Z,30528.00
2023-04-19T10:31:07.270Z,29248.00
2023-04-19T10:32:07.285Z,26944.00
2023-04-19T10:33:07.221Z,27488.00
2023-04-19T10:34:07.149Z,29408.00
2023-04-19T10:35:07.193Z,32800.00
2023-04-19T10:36:07.167Z,31616.00
2023-04-19T10:37:07.114Z,30336.00
2023-04-19T10:38:07.079Z,31072.00
2023-04-19T10:39:07.136Z,30400.00
2023-04-19T10:40:07.111Z,30656.00
2023-04-19T10:41:07.050Z,30560.00
2023-04-19T10:42:07.056Z,30784.00
2023-04-19T10:43:07.065Z,31008.00
2023-04-19T10:44:07.009Z,30688.00
2023-04-19T10:45:06.996Z,31136.00
2023-04-19T10:46:07.039Z,32736.00
2023-04-19T10:47:06.994Z,36192.00
2023-04-19T10:48:07.003Z,36960.00
2023-04-19T10:49:06.977Z,40192.00
2023-04-19T10:50:06.946Z,40960.00
2023-04-19T10:51:06.961Z,40320.00
2023-04-19T10:52:06.916Z,38656.00
2023-04-19T10:53:06.903Z,37728.00
2023-04-19T10:54:07.001Z,37888.00
2023-04-19T10:55:06.900Z,39136.00
2023-04-19T10:56:06.868Z,42560.00
2023-04-19T10:57:06.847Z,56352.00
2023-04-19T10:58:06.844Z,52608.00
2023-04-19T10:59:06.817Z,54432.00
2023-04-19T11:00:06.828Z,39040.00
2023-04-19T11:01:06.847Z,37152.00
2023-04-19T11:02:06.935Z,40832.00
2023-04-19T11:03:06.882Z,37248.00
2023-04-19T11:04:07.011Z,34080.00
2023-04-19T11:05:06.785Z,28704.00
2023-04-19T11:06:06.741Z,29024.00
2023-04-19T11:07:06.717Z,32672.00
2023-04-19T11:08:06.724Z,36352.00
2023-04-19T11:09:06.698Z,39040.00
2023-04-19T11:10:06.698Z,39360.00
2023-04-19T11:11:06.715Z,36224.00
2023-04-19T11:12:06.669Z,29056.00
2023-04-19T11:13:06.674Z,24992.00
2023-04-19T11:14:06.658Z,23520.00
2023-04-19T11:15:06.634Z,25088.00
2023-04-19T11:16:06.696Z,24928.00
2023-04-19T11:17:06.651Z,23360.00
2023-04-19T11:18:12.347Z,22176.00
2023-04-19T11:19:06.573Z,24448.00
2023-04-19T11:20:06.580Z,26688.00
2023-04-19T11:21:06.563Z,28416.00
2023-04-19T11:22:06.564Z,30784.00
2023-04-19T11:23:06.551Z,31776.00
2023-04-19T11:24:06.506Z,30560.00
2023-04-19T11:25:06.522Z,29120.00
2023-04-19T11:26:06.479Z,27456.00
2023-04-19T11:27:06.474Z,25664.00
2023-04-19T11:28:06.482Z,24768.00
2023-04-19T11:29:06.464Z,25472.00
2023-04-19T11:30:06.437Z,24928.00
2023-04-19T11:31:06.443Z,23072.00
2023-04-19T11:32:06.433Z,20416.00
2023-04-19T11:33:06.443Z,17984.00
2023-04-19T11:34:06.406Z,17280.00
2023-04-19T11:35:06.368Z,17824.00
2023-04-19T11:36:06.371Z,18592.00
2023-04-19T11:37:06.376Z,19104.00
2023-04-19T11:38:06.335Z,20416.00
2023-04-19T11:39:06.336Z,22688.00
2023-04-19T11:40:06.477Z,25280.00
2023-04-19T11:41:06.331Z,27104.00
2023-04-19T11:42:06.274Z,28512.00
2023-04-19T11:43:06.265Z,28768.00
2023-04-19T11:44:06.246Z,28800.00
2023-04-19T11:45:13.154Z,29088.00
2023-04-19T11:46:06.257Z,28992.00
2023-04-19T11:47:06.331Z,28960.00
2023-04-19T11:48:06.341Z,29216.00
2023-04-19T11:49:06.212Z,29440.00
2023-04-19T11:50:06.195Z,29632.00
2023-04-19T11:51:06.169Z,29408.00
2023-04-19T11:52:06.553Z,29184.00
2023-04-19T11:53:06.147Z,29504.00
2023-04-19T11:54:06.135Z,32352.00
2023-04-19T11:55:06.113Z,28928.00
2023-04-19T11:56:06.115Z,27392.00
2023-04-19T11:57:06.096Z,25664.00
2023-04-19T11:58:06.124Z,22880.00
2023-04-19T11:59:06.126Z,20736.00
2023-04-19T12:00:06.062Z,20416.00
2023-04-19T12:01:06.081Z,21792.00
2023-04-19T12:02:06.073Z,23712.00
2023-04-19T12:03:06.285Z,24832.00
2023-04-19T12:04:06.313Z,25280.00
2023-04-19T12:05:06.105Z,27584.00
2023-04-19T12:06:06.106Z,25952.00
2023-04-19T12:07:05.963Z,26048.00
2023-04-19T12:08:05.953Z,26528.00
2023-04-19T12:09:05.963Z,27040.00
2023-04-19T12:10:05.946Z,28096.00
2023-04-19T12:11:05.954Z,29984.00
2023-04-19T12:12:05.904Z,32032.00
2023-04-19T12:13:05.915Z,34752.00
2023-04-19T12:14:06.623Z,37920.00
2023-04-19T12:15:05.902Z,37344.00
2023-04-19T12:16:05.996Z,36288.00
2023-04-19T12:17:05.879Z,33440.00
2023-04-19T12:18:05.858Z,32224.00
2023-04-19T12:19:05.834Z,31296.00
2023-04-19T12:20:05.795Z,30720.00
2023-04-19T12:21:05.824Z,30976.00
2023-04-19T12:22:05.771Z,31264.00
2023-04-19T12:23:05.761Z,30272.00
2023-04-19T12:24:05.763Z,29216.00
2023-04-19T12:25:05.741Z,28640.00
2023-04-19T12:26:05.751Z,28256.00
2023-04-19T12:27:05.847Z,27584.00
2023-04-19T12:28:05.720Z,26720.00